sensor_id;sensor_type;location;lat;lon;timestamp;pressure;altitude;pressure_sealevel;temperature;humidity
70027;BME280;57506;50.092;15.804;2022-07-05T00:00:15;99177.34;;;17.19;97.51
70027;BME280;57506;50.092;15.804;2022-07-05T00:02:41;99183.38;;;16.97;98.42
70027;BME280;57506;50.092;15.804;2022-07-05T00:05:06;99188.53;;;16.75;99.93
70027;BME280;57506;50.092;15.804;2022-07-05T00:07:32;99177.97;;;16.56;100.00
70027;BME280;57506;50.092;15.804;2022-07-05T00:09:58;99178.50;;;16.46;100.00
70027;BME280;57506;50.092;15.804;2022-07-05T00:12:29;99185.25;;;16.43;100.00
70027;BME280;57506;50.092;15.804;2022-07-05T00:14:57;99182.03;;;16.35;100.00
70027;BME280;57506;50.092;15.804;2022-07-05T00:17:23;99171.47;;;16.27;100.00
70027;BME280;57506;50.092;15.804;2022-07-05T00:19:48;99171.56;;;16.20;100.00
70027;BME280;57506;50.092;15.804;2022-07-05T00:22:14;99188.19;;;16.12;100.00
70027;BME280;57506;50.092;15.804;2022-07-05T00:24:40;99185.34;;;16.07;100.00
70027;BME280;57506;50.092;15.804;2022-07-05T00:27:05;99184.38;;;16.01;100.00
70027;BME280;57506;50.092;15.804;2022-07-05T00:29:31;99190.19;;;16.05;100.00
70027;BME280;57506;50.092;15.804;2022-07-05T00:31:57;99183.59;;;16.13;100.00
70027;BME280;57506;50.092;15.804;2022-07-05T00:34:23;99191.44;;;16.21;100.00
70027;BME280;57506;50.092;15.804;2022-07-05T00:36:48;99184.56;;;16.18;100.00
70027;BME280;57506;50.092;15.804;2022-07-05T00:39:14;99188.56;;;16.16;100.00
70027;BME280;57506;50.092;15.804;2022-07-05T00:41:40;99181.25;;;16.16;100.00
70027;BME280;57506;50.092;15.804;2022-07-05T00:44:08;99183.59;;;16.13;100.00
70027;BME280;57506;50.092;15.804;2022-07-05T00:46:35;99174.72;;;16.35;100.00
70027;BME280;57506;50.092;15.804;2022-07-05T00:49:03;99176.97;;;16.92;96.79
70027;BME280;57506;50.092;15.804;2022-07-05T00:51:30;99177.22;;;17.25;93.50
70027;BME280;57506;50.092;15.804;2022-07-05T00:53:57;99167.41;;;17.36;93.64
70027;BME280;57506;50.092;15.804;2022-07-05T00:56:24;99164.78;;;17.41;93.07
70027;BME280;57506;50.092;15.804;2022-07-05T00:58:51;99167.16;;;17.49;91.98
70027;BME280;57506;50.092;15.804;2022-07-05T01:01:17;99169.78;;;17.21;96.08
70027;BME280;57506;50.092;15.804;2022-07-05T01:03:43;99175.56;;;17.12;96.55
70027;BME280;57506;50.092;15.804;2022-07-05T01:06:11;99163.50;;;16.97;97.37
70027;BME280;57506;50.092;15.804;2022-07-05T01:08:41;99183.00;;;16.82;97.66
70027;BME280;57506;50.092;15.804;2022-07-05T01:11:08;99174.16;;;16.57;98.88
70027;BME280;57506;50.092;15.804;2022-07-05T01:13:36;99178.75;;;16.56;98.24
70027;BME280;57506;50.092;15.804;2022-07-05T01:16:03;99180.19;;;16.59;99.11
70027;BME280;57506;50.092;15.804;2022-07-05T01:18:29;99166.53;;;16.35;99.55
70027;BME280;57506;50.092;15.804;2022-07-05T01:20:55;99170.63;;;16.26;100.00
70027;BME280;57506;50.092;15.804;2022-07-05T01:23:22;99176.44;;;16.30;99.66
70027;BME280;57506;50.092;15.804;2022-07-05T01:25:48;99178.19;;;16.24;99.96
70027;BME280;57506;50.092;15.804;2022-07-05T01:28:15;99171.06;;;16.12;100.00
70027;BME280;57506;50.092;15.804;2022-07-05T01:30:42;99171.63;;;16.02;100.00
70027;BME280;57506;50.092;15.804;2022-07-05T01:33:08;99174.97;;;15.86;100.00
70027;BME280;57506;50.092;15.804;2022-07-05T01:35:34;99174.19;;;15.79;100.00
70027;BME280;57506;50.092;15.804;2022-07-05T01:38:00;99179.03;;;15.77;100.00
70027;BME280;57506;50.092;15.804;2022-07-05T01:40:26;99164.72;;;15.69;100.00
70027;BME280;57506;50.092;15.804;2022-07-05T01:42:52;99177.25;;;15.70;100.00
70027;BME280;57506;50.092;15.804;2022-07-05T01:45:18;99163.94;;;15.62;100.00
70027;BME280;57506;50.092;15.804;2022-07-05T01:48:02;99165.00;;;15.61;100.00
70027;BME280;57506;50.092;15.804;2022-07-05T01:50:31;99169.09;;;15.70;100.00
70027;BME280;57506;50.092;15.804;2022-07-05T01:53:00;99177.84;;;15.72;100.00
70027;BME280;57506;50.092;15.804;2022-07-05T01:55:28;99171.81;;;15.70;100.00
70027;BME280;57506;50.092;15.804;2022-07-05T01:57:53;99178.28;;;15.69;100.00
70027;BME280;57506;50.092;15.804;2022-07-05T02:00:19;99172.25;;;15.67;100.00
70027;BME280;57506;50.092;15.804;2022-07-05T02:02:46;99172.25;;;15.67;100.00
70027;BME280;57506;50.092;15.804;2022-07-05T02:05:11;99177.09;;;15.65;100.00
70027;BME280;57506;50.092;15.804;2022-07-05T02:07:37;99173.69;;;15.70;100.00
70027;BME280;57506;50.092;15.804;2022-07-05T02:10:10;99159.13;;;15.64;100.00
70027;BME280;57506;50.092;15.804;2022-07-05T02:12:36;99171.34;;;15.73;100.00
70027;BME280;57506;50.092;15.804;2022-07-05T02:15:01;99164.38;;;15.78;100.00
70027;BME280;57506;50.092;15.804;2022-07-05T02:17:27;99170.34;;;15.86;100.00
70027;BME280;57506;50.092;15.804;2022-07-05T02:19:52;99169.44;;;15.92;100.00
70027;BME280;57506;50.092;15.804;2022-07-05T02:22:18;99172.69;;;15.83;100.00
70027;BME280;57506;50.092;15.804;2022-07-05T02:24:43;99173.91;;;15.87;99.88
70027;BME280;57506;50.092;15.804;2022-07-05T02:27:09;99184.00;;;15.80;99.72
70027;BME280;57506;50.092;15.804;2022-07-05T02:29:34;99171.19;;;15.68;98.89
70027;BME280;57506;50.092;15.804;2022-07-05T02:32:00;99180.00;;;16.00;100.00
70027;BME280;57506;50.092;15.804;2022-07-05T02:34:25;99174.16;;;16.15;98.27
70027;BME280;57506;50.092;15.804;2022-07-05T02:36:51;99189.75;;;16.50;96.10
70027;BME280;57506;50.092;15.804;2022-07-05T02:39:16;99189.72;;;16.68;94.59
70027;BME280;57506;50.092;15.804;2022-07-05T02:41:42;99180.41;;;16.45;95.55
70027;BME280;57506;50.092;15.804;2022-07-05T02:44:07;99189.75;;;16.50;95.56
70027;BME280;57506;50.092;15.804;2022-07-05T02:46:33;99179.16;;;16.30;96.25
70027;BME280;57506;50.092;15.804;2022-07-05T02:48:58;99180.66;;;16.14;98.07
70027;BME280;57506;50.092;15.804;2022-07-05T02:51:24;99192.28;;;16.21;97.59
70027;BME280;57506;50.092;15.804;2022-07-05T02:53:50;99185.91;;;16.27;96.74
70027;BME280;57506;50.092;15.804;2022-07-05T02:56:15;99195.88;;;16.45;96.17
70027;BME280;57506;50.092;15.804;2022-07-05T02:58:40;99188.53;;;16.75;94.12
70027;BME280;57506;50.092;15.804;2022-07-05T03:01:06;99196.75;;;16.87;92.01
70027;BME280;57506;50.092;15.804;2022-07-05T03:03:32;99196.09;;;16.73;94.23
70027;BME280;57506;50.092;15.804;2022-07-05T03:05:57;99186.56;;;16.94;90.94
70027;BME280;57506;50.092;15.804;2022-07-05T03:08:23;99176.97;;;17.38;88.70
70027;BME280;57506;50.092;15.804;2022-07-05T03:10:48;99186.00;;;17.27;88.18
70027;BME280;57506;50.092;15.804;2022-07-05T03:13:14;99188.72;;;17.51;87.23
70027;BME280;57506;50.092;15.804;2022-07-05T03:15:39;99187.16;;;17.78;85.83
70027;BME280;57506;50.092;15.804;2022-07-05T03:18:05;99191.66;;;17.84;85.57
70027;BME280;57506;50.092;15.804;2022-07-05T03:20:31;99196.16;;;17.78;85.92
70027;BME280;57506;50.092;15.804;2022-07-05T03:22:56;99198.13;;;17.95;84.78
70027;BME280;57506;50.092;15.804;2022-07-05T03:25:22;99199.75;;;18.07;84.51
70027;BME280;57506;50.092;15.804;2022-07-05T03:27:47;99194.09;;;18.26;83.53
70027;BME280;57506;50.092;15.804;2022-07-05T03:30:13;99195.81;;;18.43;82.42
70027;BME280;57506;50.092;15.804;2022-07-05T03:32:38;99200.78;;;18.46;82.13
70027;BME280;57506;50.092;15.804;2022-07-05T03:35:04;99196.63;;;18.44;82.30
70027;BME280;57506;50.092;15.804;2022-07-05T03:37:30;99205.22;;;18.64;81.07
70027;BME280;57506;50.092;15.804;2022-07-05T03:39:56;99204.41;;;18.52;82.86
70027;BME280;57506;50.092;15.804;2022-07-05T03:42:21;99207.63;;;18.61;81.69
70027;BME280;57506;50.092;15.804;2022-07-05T03:44:47;99203.44;;;18.58;82.23
70027;BME280;57506;50.092;15.804;2022-07-05T03:47:13;99206.91;;;18.53;82.46
70027;BME280;57506;50.092;15.804;2022-07-05T03:49:39;99204.88;;;18.61;82.16
70027;BME280;57506;50.092;15.804;2022-07-05T03:52:05;99215.91;;;18.66;81.21
70027;BME280;57506;50.092;15.804;2022-07-05T03:54:31;99216.06;;;18.76;80.38
70027;BME280;57506;50.092;15.804;2022-07-05T03:56:56;99224.69;;;18.84;82.61
70027;BME280;57506;50.092;15.804;2022-07-05T03:59:22;99231.16;;;18.95;80.68
70027;BME280;57506;50.092;15.804;2022-07-05T04:01:47;99214.78;;;18.95;81.19
70027;BME280;57506;50.092;15.804;2022-07-05T04:04:13;99230.16;;;19.01;81.24
70027;BME280;57506;50.092;15.804;2022-07-05T04:06:38;99232.06;;;19.01;80.84
70027;BME280;57506;50.092;15.804;2022-07-05T04:09:04;99237.28;;;19.19;80.30
70027;BME280;57506;50.092;15.804;2022-07-05T04:11:30;99237.63;;;19.22;81.02
70027;BME280;57506;50.092;15.804;2022-07-05T04:13:56;99238.19;;;19.25;79.94
70027;BME280;57506;50.092;15.804;2022-07-05T04:16:21;99244.88;;;19.34;78.44
70027;BME280;57506;50.092;15.804;2022-07-05T04:18:47;99244.25;;;19.43;77.88
70027;BME280;57506;50.092;15.804;2022-07-05T04:21:13;99236.78;;;19.39;77.90
70027;BME280;57506;50.092;15.804;2022-07-05T04:23:38;99249.06;;;19.53;77.58
70027;BME280;57506;50.092;15.804;2022-07-05T04:26:04;99249.97;;;19.59;77.60
70027;BME280;57506;50.092;15.804;2022-07-05T04:28:29;99252.44;;;19.60;81.74
70027;BME280;57506;50.092;15.804;2022-07-05T04:30:58;99237.13;;;19.59;77.85
70027;BME280;57506;50.092;15.804;2022-07-05T04:33:24;99246.53;;;19.68;76.70
70027;BME280;57506;50.092;15.804;2022-07-05T04:35:50;99243.31;;;19.71;76.11
70027;BME280;57506;50.092;15.804;2022-07-05T04:38:15;99243.72;;;19.80;75.96
70027;BME280;57506;50.092;15.804;2022-07-05T04:40:41;99252.28;;;19.88;75.65
70027;BME280;57506;50.092;15.804;2022-07-05T04:43:07;99259.50;;;19.95;74.75
70027;BME280;57506;50.092;15.804;2022-07-05T04:45:33;99239.81;;;19.98;73.12
70027;BME280;57506;50.092;15.804;2022-07-05T04:47:59;99255.88;;;20.11;73.53
70027;BME280;57506;50.092;15.804;2022-07-05T04:50:24;99256.13;;;20.09;72.07
70027;BME280;57506;50.092;15.804;2022-07-05T04:52:50;99267.53;;;20.23;71.26
70027;BME280;57506;50.092;15.804;2022-07-05T04:55:16;99252.19;;;20.22;72.24
70027;BME280;57506;50.092;15.804;2022-07-05T04:57:42;99268.69;;;20.27;70.90
70027;BME280;57506;50.092;15.804;2022-07-05T05:00:10;99260.22;;;20.29;69.83
70027;BME280;57506;50.092;15.804;2022-07-05T05:02:37;99252.75;;;20.24;69.27
70027;BME280;57506;50.092;15.804;2022-07-05T05:05:03;99244.88;;;20.27;69.20
70027;BME280;57506;50.092;15.804;2022-07-05T05:07:28;99239.00;;;20.19;69.55
70027;BME280;57506;50.092;15.804;2022-07-05T05:09:54;99249.44;;;20.22;70.11
70027;BME280;57506;50.092;15.804;2022-07-05T05:12:20;99257.97;;;20.25;69.80
70027;BME280;57506;50.092;15.804;2022-07-05T05:14:46;99242.38;;;20.26;69.67
70027;BME280;57506;50.092;15.804;2022-07-05T05:17:11;99241.81;;;20.24;69.22
70027;BME280;57506;50.092;15.804;2022-07-05T05:19:37;99252.00;;;20.29;69.18
70027;BME280;57506;50.092;15.804;2022-07-05T05:22:02;99252.88;;;20.34;70.08
70027;BME280;57506;50.092;15.804;2022-07-05T05:24:28;99257.47;;;20.29;69.38
70027;BME280;57506;50.092;15.804;2022-07-05T05:26:54;99252.28;;;20.32;69.47
70027;BME280;57506;50.092;15.804;2022-07-05T05:29:19;99262.75;;;20.35;68.90
70027;BME280;57506;50.092;15.804;2022-07-05T05:31:46;99258.56;;;20.27;69.40
70027;BME280;57506;50.092;15.804;2022-07-05T05:34:12;99260.59;;;20.37;69.44
70027;BME280;57506;50.092;15.804;2022-07-05T05:36:37;99265.06;;;20.43;68.77
70027;BME280;57506;50.092;15.804;2022-07-05T05:39:03;99257.94;;;20.42;68.95
70027;BME280;57506;50.092;15.804;2022-07-05T05:41:29;99269.47;;;20.44;69.43
70027;BME280;57506;50.092;15.804;2022-07-05T05:43:54;99267.81;;;20.43;69.31
70027;BME280;57506;50.092;15.804;2022-07-05T05:46:20;99264.03;;;20.49;69.46
70027;BME280;57506;50.092;15.804;2022-07-05T05:48:45;99267.28;;;20.46;69.34
70027;BME280;57506;50.092;15.804;2022-07-05T05:51:11;99260.22;;;20.50;69.48
70027;BME280;57506;50.092;15.804;2022-07-05T05:53:36;99272.94;;;20.62;69.55
70027;BME280;57506;50.092;15.804;2022-07-05T05:56:02;99277.78;;;20.54;70.24
70027;BME280;57506;50.092;15.804;2022-07-05T05:58:28;99265.50;;;20.57;69.42
70027;BME280;57506;50.092;15.804;2022-07-05T06:00:53;99283.91;;;20.62;69.10
70027;BME280;57506;50.092;15.804;2022-07-05T06:03:20;99281.78;;;20.69;68.94
70027;BME280;57506;50.092;15.804;2022-07-05T06:05:45;99278.72;;;20.65;69.34
70027;BME280;57506;50.092;15.804;2022-07-05T06:08:11;99280.19;;;20.73;69.74
70027;BME280;57506;50.092;15.804;2022-07-05T06:10:37;99284.19;;;20.65;69.76
70027;BME280;57506;50.092;15.804;2022-07-05T06:13:05;99297.53;;;20.83;68.62
70027;BME280;57506;50.092;15.804;2022-07-05T06:15:31;99280.53;;;20.81;68.45
70027;BME280;57506;50.092;15.804;2022-07-05T06:17:57;99285.66;;;21.00;68.78
70027;BME280;57506;50.092;15.804;2022-07-05T06:20:28;99274.56;;;21.16;68.58
70027;BME280;57506;50.092;15.804;2022-07-05T06:22:55;99286.47;;;21.27;68.23
70027;BME280;57506;50.092;15.804;2022-07-05T06:25:21;99294.53;;;21.39;67.68
70027;BME280;57506;50.092;15.804;2022-07-05T06:27:49;99296.66;;;21.32;67.76
70027;BME280;57506;50.092;15.804;2022-07-05T06:30:16;99294.53;;;21.39;68.07
70027;BME280;57506;50.092;15.804;2022-07-05T06:32:44;99304.75;;;21.48;68.18
70027;BME280;57506;50.092;15.804;2022-07-05T06:35:10;99311.13;;;21.27;68.27
70027;BME280;57506;50.092;15.804;2022-07-05T06:40:29;99310.25;;;20.94;69.50
70027;BME280;57506;50.092;15.804;2022-07-05T06:42:57;99316.03;;;20.98;70.19
70027;BME280;57506;50.092;15.804;2022-07-05T06:45:23;99306.31;;;20.85;70.00
70027;BME280;57506;50.092;15.804;2022-07-05T06:50:21;99313.22;;;20.88;69.84
70027;BME280;57506;50.092;15.804;2022-07-05T06:52:46;99311.56;;;20.87;70.56
70027;BME280;57506;50.092;15.804;2022-07-05T06:55:12;99308.75;;;20.82;70.81
70027;BME280;57506;50.092;15.804;2022-07-05T06:57:39;99321.88;;;20.80;70.74
70027;BME280;57506;50.092;15.804;2022-07-05T07:00:05;99315.78;;;20.73;70.60
70027;BME280;57506;50.092;15.804;2022-07-05T07:02:30;99313.03;;;20.73;71.05
70027;BME280;57506;50.092;15.804;2022-07-05T07:04:56;99332.53;;;20.76;71.32
70027;BME280;57506;50.092;15.804;2022-07-05T07:07:22;99337.06;;;20.66;71.02
70027;BME280;57506;50.092;15.804;2022-07-05T07:10:06;99338.09;;;20.59;71.07
70027;BME280;57506;50.092;15.804;2022-07-05T07:12:31;99343.00;;;20.57;71.99
70027;BME280;57506;50.092;15.804;2022-07-05T07:14:57;99334.09;;;20.45;72.62
70027;BME280;57506;50.092;15.804;2022-07-05T07:17:24;99348.41;;;20.52;72.60
70027;BME280;57506;50.092;15.804;2022-07-05T07:19:50;99337.25;;;20.37;72.79
70027;BME280;57506;50.092;15.804;2022-07-05T07:22:15;99343.56;;;20.21;75.47
70027;BME280;57506;50.092;15.804;2022-07-05T07:24:41;99347.41;;;20.03;77.95
70027;BME280;57506;50.092;15.804;2022-07-05T07:27:06;99359.06;;;19.77;82.09
70027;BME280;57506;50.092;15.804;2022-07-05T07:29:37;99352.06;;;19.36;87.76
70027;BME280;57506;50.092;15.804;2022-07-05T07:32:04;99346.50;;;19.14;87.33
70027;BME280;57506;50.092;15.804;2022-07-05T07:34:30;99349.66;;;18.94;90.07
70027;BME280;57506;50.092;15.804;2022-07-05T07:36:56;99336.63;;;18.84;92.85
70027;BME280;57506;50.092;15.804;2022-07-05T07:39:22;99346.66;;;18.79;91.70
70027;BME280;57506;50.092;15.804;2022-07-05T07:41:48;99344.75;;;18.79;92.64
70027;BME280;57506;50.092;15.804;2022-07-05T07:44:13;99347.72;;;18.78;93.60
70027;BME280;57506;50.092;15.804;2022-07-05T07:46:39;99352.09;;;18.79;91.98
70027;BME280;57506;50.092;15.804;2022-07-05T07:49:06;99357.34;;;18.80;93.08
70027;BME280;57506;50.092;15.804;2022-07-05T07:51:32;99342.84;;;18.80;95.77
70027;BME280;57506;50.092;15.804;2022-07-05T07:53:58;99356.31;;;18.98;95.75
70027;BME280;57506;50.092;15.804;2022-07-05T07:56:23;99356.66;;;19.18;93.36
70027;BME280;57506;50.092;15.804;2022-07-05T07:58:49;99357.44;;;19.31;90.61
70027;BME280;57506;50.092;15.804;2022-07-05T08:01:15;99369.72;;;19.45;90.83
70027;BME280;57506;50.092;15.804;2022-07-05T08:03:41;99364.16;;;19.40;92.47
70027;BME280;57506;50.092;15.804;2022-07-05T08:06:08;99361.50;;;19.28;88.12
70027;BME280;57506;50.092;15.804;2022-07-05T08:08:36;99370.19;;;19.25;88.76
70027;BME280;57506;50.092;15.804;2022-07-05T08:11:02;99371.50;;;19.22;91.05
70027;BME280;57506;50.092;15.804;2022-07-05T08:13:28;99372.41;;;19.11;88.06
70027;BME280;57506;50.092;15.804;2022-07-05T08:15:54;99380.94;;;19.15;87.76
70027;BME280;57506;50.092;15.804;2022-07-05T08:18:19;99373.84;;;19.02;87.68
70027;BME280;57506;50.092;15.804;2022-07-05T08:21:03;99373.38;;;19.05;88.72
70027;BME280;57506;50.092;15.804;2022-07-05T08:23:47;99378.69;;;19.12;89.28
70027;BME280;57506;50.092;15.804;2022-07-05T08:26:13;99387.31;;;19.20;88.37
70027;BME280;57506;50.092;15.804;2022-07-05T08:28:38;99394.78;;;19.25;88.99
70027;BME280;57506;50.092;15.804;2022-07-05T08:31:04;99394.25;;;19.11;88.32
70027;BME280;57506;50.092;15.804;2022-07-05T08:33:30;99402.53;;;19.16;89.74
70027;BME280;57506;50.092;15.804;2022-07-05T08:35:56;99391.41;;;19.06;88.24
70027;BME280;57506;50.092;15.804;2022-07-05T08:38:21;99401.16;;;19.02;89.46
70027;BME280;57506;50.092;15.804;2022-07-05T08:40:50;99396.88;;;19.06;87.84
70027;BME280;57506;50.092;15.804;2022-07-05T08:43:18;99404.59;;;19.09;88.76
70027;BME280;57506;50.092;15.804;2022-07-05T08:45:45;99407.22;;;19.04;87.94
70027;BME280;57506;50.092;15.804;2022-07-05T08:48:11;99413.06;;;18.96;88.61
70027;BME280;57506;50.092;15.804;2022-07-05T08:50:40;99411.94;;;19.09;89.48
70027;BME280;57506;50.092;15.804;2022-07-05T08:53:06;99413.06;;;19.25;89.66
70027;BME280;57506;50.092;15.804;2022-07-05T08:55:32;99417.81;;;19.29;87.11
70027;BME280;57506;50.092;15.804;2022-07-05T08:57:59;99415.75;;;19.36;87.26
70027;BME280;57506;50.092;15.804;2022-07-05T09:00:25;99407.94;;;19.56;87.95
70027;BME280;57506;50.092;15.804;2022-07-05T09:02:51;99415.06;;;19.58;84.97
70027;BME280;57506;50.092;15.804;2022-07-05T09:05:18;99414.50;;;19.72;87.17
70027;BME280;57506;50.092;15.804;2022-07-05T09:08:00;99406.13;;;19.79;86.07
70027;BME280;57506;50.092;15.804;2022-07-05T09:10:28;99406.06;;;19.90;85.42
70027;BME280;57506;50.092;15.804;2022-07-05T09:12:55;99409.59;;;20.08;83.84
70027;BME280;57506;50.092;15.804;2022-07-05T09:15:22;99410.56;;;20.18;84.87
70027;BME280;57506;50.092;15.804;2022-07-05T09:17:47;99406.75;;;20.19;84.45
70027;BME280;57506;50.092;15.804;2022-07-05T09:20:18;99411.16;;;20.37;84.23
70027;BME280;57506;50.092;15.804;2022-07-05T09:22:54;99403.16;;;20.52;82.68
70027;BME280;57506;50.092;15.804;2022-07-05T09:25:28;99403.28;;;20.63;82.19
70027;BME280;57506;50.092;15.804;2022-07-05T09:28:04;99406.56;;;20.59;81.23
70027;BME280;57506;50.092;15.804;2022-07-05T09:30:39;99407.63;;;20.58;80.72
70027;BME280;57506;50.092;15.804;2022-07-05T09:33:11;99412.16;;;20.70;82.18
70027;BME280;57506;50.092;15.804;2022-07-05T09:35:42;99417.00;;;20.46;81.17
70027;BME280;57506;50.092;15.804;2022-07-05T09:38:24;99407.59;;;20.20;83.45
70027;BME280;57506;50.092;15.804;2022-07-05T09:40:52;99417.38;;;20.16;81.92
70027;BME280;57506;50.092;15.804;2022-07-05T09:43:23;99421.63;;;19.90;82.08
70027;BME280;57506;50.092;15.804;2022-07-05T09:45:53;99424.94;;;19.75;84.13
70027;BME280;57506;50.092;15.804;2022-07-05T09:48:19;99427.00;;;19.68;84.83
70027;BME280;57506;50.092;15.804;2022-07-05T09:50:45;99425.75;;;19.59;86.20
70027;BME280;57506;50.092;15.804;2022-07-05T09:53:11;99429.03;;;19.44;87.78
70027;BME280;57506;50.092;15.804;2022-07-05T09:55:37;99430.88;;;19.27;87.91
70027;BME280;57506;50.092;15.804;2022-07-05T09:58:04;99431.72;;;19.28;91.76
70027;BME280;57506;50.092;15.804;2022-07-05T10:00:29;99435.34;;;19.33;91.61
70027;BME280;57506;50.092;15.804;2022-07-05T10:02:57;99430.94;;;19.44;92.67
70027;BME280;57506;50.092;15.804;2022-07-05T10:05:30;99431.63;;;19.51;92.64
70027;BME280;57506;50.092;15.804;2022-07-05T10:08:00;99434.72;;;19.43;89.12
70027;BME280;57506;50.092;15.804;2022-07-05T10:10:27;99449.78;;;19.29;90.50
70027;BME280;57506;50.092;15.804;2022-07-05T10:12:56;99451.50;;;19.06;93.20
70027;BME280;57506;50.092;15.804;2022-07-05T10:15:24;99443.44;;;19.00;93.56
70027;BME280;57506;50.092;15.804;2022-07-05T10:20:38;99450.56;;;19.12;93.26
70027;BME280;57506;50.092;15.804;2022-07-05T10:23:14;99466.66;;;19.26;92.46
70027;BME280;57506;50.092;15.804;2022-07-05T10:25:42;99459.75;;;18.95;93.56
70027;BME280;57506;50.092;15.804;2022-07-05T10:28:09;99455.25;;;18.88;95.37
70027;BME280;57506;50.092;15.804;2022-07-05T10:30:35;99469.13;;;18.87;95.35
70027;BME280;57506;50.092;15.804;2022-07-05T10:33:03;99471.75;;;18.94;97.71
70027;BME280;57506;50.092;15.804;2022-07-05T10:35:29;99470.03;;;19.04;96.16
70027;BME280;57506;50.092;15.804;2022-07-05T10:37:55;99461.25;;;19.02;94.58
70027;BME280;57506;50.092;15.804;2022-07-05T10:40:22;99465.06;;;19.01;93.50
70027;BME280;57506;50.092;15.804;2022-07-05T10:42:54;99460.56;;;18.95;94.75
70027;BME280;57506;50.092;15.804;2022-07-05T10:45:38;99473.13;;;19.08;96.75
70027;BME280;57506;50.092;15.804;2022-07-05T10:50:43;99471.53;;;19.23;97.00
70027;BME280;57506;50.092;15.804;2022-07-05T10:53:09;99463.84;;;19.37;95.09
70027;BME280;57506;50.092;15.804;2022-07-05T10:55:48;99474.44;;;19.34;92.78
70027;BME280;57506;50.092;15.804;2022-07-05T11:00:46;99477.56;;;19.26;94.91
70027;BME280;57506;50.092;15.804;2022-07-05T11:03:32;99478.66;;;19.25;94.82
70027;BME280;57506;50.092;15.804;2022-07-05T11:05:59;99474.44;;;19.34;92.47
70027;BME280;57506;50.092;15.804;2022-07-05T11:08:25;99476.31;;;19.45;94.04
70027;BME280;57506;50.092;15.804;2022-07-05T11:11:10;99472.00;;;19.49;93.28
70027;BME280;57506;50.092;15.804;2022-07-05T11:13:42;99466.53;;;19.61;92.71
70027;BME280;57506;50.092;15.804;2022-07-05T11:21:32;99466.59;;;19.66;92.92
70027;BME280;57506;50.092;15.804;2022-07-05T11:24:18;99463.38;;;19.69;90.67
70027;BME280;57506;50.092;15.804;2022-07-05T11:26:45;99468.53;;;19.99;92.83
70027;BME280;57506;50.092;15.804;2022-07-05T11:32:13;99469.53;;;20.26;90.80
70027;BME280;57506;50.092;15.804;2022-07-05T11:34:40;99465.81;;;20.15;87.35
70027;BME280;57506;50.092;15.804;2022-07-05T11:37:23;99469.59;;;19.98;86.78
70027;BME280;57506;50.092;15.804;2022-07-05T11:42:49;99473.16;;;20.32;85.10
70027;BME280;57506;50.092;15.804;2022-07-05T11:45:15;99470.69;;;20.13;85.98
70027;BME280;57506;50.092;15.804;2022-07-05T11:47:41;99482.91;;;20.22;83.49
70027;BME280;57506;50.092;15.804;2022-07-05T11:50:08;99467.56;;;20.05;85.85
70027;BME280;57506;50.092;15.804;2022-07-05T11:52:37;99464.66;;;20.28;84.56
70027;BME280;57506;50.092;15.804;2022-07-05T11:55:11;99458.84;;;20.41;84.11
70027;BME280;57506;50.092;15.804;2022-07-05T11:57:37;99468.13;;;20.07;82.40
70027;BME280;57506;50.092;15.804;2022-07-05T12:00:13;99461.63;;;20.30;82.98
70027;BME280;57506;50.092;15.804;2022-07-05T12:02:44;99463.88;;;20.33;81.10
70027;BME280;57506;50.092;15.804;2022-07-05T12:05:10;99467.09;;;20.63;82.18
70027;BME280;57506;50.092;15.804;2022-07-05T12:07:37;99474.94;;;20.54;75.89
70027;BME280;57506;50.092;15.804;2022-07-05T12:10:03;99467.78;;;20.53;76.11
70027;BME280;57506;50.092;15.804;2022-07-05T12:12:47;99469.81;;;20.41;75.55
70027;BME280;57506;50.092;15.804;2022-07-05T12:15:19;99468.78;;;20.47;73.11
70027;BME280;57506;50.092;15.804;2022-07-05T12:17:49;99461.97;;;20.50;70.37
70027;BME280;57506;50.092;15.804;2022-07-05T12:20:21;99457.00;;;20.85;74.60
70027;BME280;57506;50.092;15.804;2022-07-05T12:22:48;99472.84;;;20.62;69.22
70027;BME280;57506;50.092;15.804;2022-07-05T12:25:16;99449.06;;;20.45;70.47
70027;BME280;57506;50.092;15.804;2022-07-05T12:27:44;99459.97;;;20.62;70.54
70027;BME280;57506;50.092;15.804;2022-07-05T12:30:11;99457.75;;;20.81;69.75
70027;BME280;57506;50.092;15.804;2022-07-05T12:33:12;99467.28;;;20.78;70.28
70027;BME280;57506;50.092;15.804;2022-07-05T12:35:46;99450.75;;;20.90;71.60
70027;BME280;57506;50.092;15.804;2022-07-05T12:38:17;99458.97;;;20.68;67.43
70027;BME280;57506;50.092;15.804;2022-07-05T12:41:08;99470.03;;;20.78;71.42
70027;BME280;57506;50.092;15.804;2022-07-05T12:43:32;99465.09;;;20.75;69.22
70027;BME280;57506;50.092;15.804;2022-07-05T12:46:00;99463.97;;;20.93;71.93
70027;BME280;57506;50.092;15.804;2022-07-05T12:48:36;99471.06;;;20.72;68.93
70027;BME280;57506;50.092;15.804;2022-07-05T12:51:03;99470.88;;;20.79;71.91
70027;BME280;57506;50.092;15.804;2022-07-05T12:53:30;99466.78;;;20.59;71.30
70027;BME280;57506;50.092;15.804;2022-07-05T12:56:14;99471.97;;;20.78;70.66
70027;BME280;57506;50.092;15.804;2022-07-05T12:59:03;99464.72;;;20.50;69.88
70027;BME280;57506;50.092;15.804;2022-07-05T13:01:31;99462.78;;;20.67;72.44
70027;BME280;57506;50.092;15.804;2022-07-05T13:04:13;99474.91;;;20.93;70.89
70027;BME280;57506;50.092;15.804;2022-07-05T13:07:01;99465.66;;;20.99;73.29
70027;BME280;57506;50.092;15.804;2022-07-05T13:12:18;99469.38;;;21.32;70.29
70027;BME280;57506;50.092;15.804;2022-07-05T13:14:49;99458.44;;;21.58;68.63
70027;BME280;57506;50.092;15.804;2022-07-05T13:17:17;99461.44;;;21.57;69.53